This is the latest recevied weather packets stored in our database for station/object VE3ZEB-1. If no packets are shown the sender has not sent any weather packets the latest 10 day(s).
| Time | Temp. | Humidity | Pressure | Rain* | Wind** | Luminosity | Snow |
|---|---|---|---|---|---|---|---|
| 1777815022 | 8.33° C | 59% | 679.4 hPa | 0 mm | - | 223 W/m² | - |
| 1777814422 | 8.33° C | 59% | 679.3 hPa | 0 mm | - | 145 W/m² | - |
| 1777813822 | 7.22° C | 61% | 679.3 hPa | 0 mm | - | 113 W/m² | - |
| 1777813223 | 6.67° C | 64% | 679.3 hPa | 0 mm | - | 180 W/m² | - |
| 1777812043 | 5.56° C | 68% | 679.2 hPa | 0 mm | - | 135 W/m² | - |
| 1777808423 | 2.22° C | 76% | 679.1 hPa | 0 mm | - | 63 W/m² | - |
| 1777806024 | 1.11° C | 76% | 679.1 hPa | 0 mm | - | 17 W/m² | - |
| 1777805425 | 0.56° C | 76% | 679.1 hPa | 0 mm | - | 17 W/m² | - |
| 1777803025 | 0° C | 76% | 679.1 hPa | 0 mm | - | 0 W/m² | - |
| 1777801226 | 0° C | 76% | 679.1 hPa | 0 mm | - | 0 W/m² | - |
| 1777800625 | 0° C | 76% | 679.1 hPa | 0 mm | - | 0 W/m² | - |
| 1777798826 | 0° C | 75% | 679.1 hPa | 0 mm | - | 0 W/m² | - |
| 1777795796 | 0° C | 74% | 679.1 hPa | 0 mm | - | 0 W/m² | - |
| 1777793427 | 0.56° C | 72% | 679.1 hPa | 0 mm | - | 0 W/m² | - |
| 1777792847 | 0.56° C | 72% | 679.1 hPa | 0 mm | - | 0 W/m² | - |
| 1777790428 | 0.56° C | 72% | 679.1 hPa | 0 mm | - | 0 W/m² | - |
| 1777788048 | 1.11° C | 69% | 679.1 hPa | 0 mm | - | 0 W/m² | - |
| 1777785029 | 1.11° C | 68% | 679.1 hPa | 0 mm | - | 0 W/m² | - |
| 1777783849 | 1.11° C | 68% | 679.1 hPa | 0 mm | - | 0 W/m² | - |
| 1777782050 | 1.11° C | 65% | 679.2 hPa | 0 mm | - | 0 W/m² | - |
| 1777773631 | 3.33° C | 53% | 679.2 hPa | 0 mm | - | 0 W/m² | - |
| 1777771232 | 4.44° C | 51% | 679.3 hPa | 0 mm | - | 0 W/m² | - |
| 1777770632 | 5° C | 49% | 679.3 hPa | 0 mm | - | 0 W/m² | - |
| 1777770072 | 5° C | 48% | 679.3 hPa | 0 mm | - | 0 W/m² | - |
| 1777768833 | 5.56° C | 47% | 679.3 hPa | 0 mm | - | 0 W/m² | - |
* Rain latest hour (hover to see other rain measurements)
** Current wind speed in m/s (hover to see current wind gust speed)